JBU1419 KLGA-KDCA
Flight info
| Callsign | JBU1419 |
|---|---|
| Flight time | N/A |
| Altitude | 22000 |
| Route | BIGGY Q75 MXE CLIPR3 |
| Aircraft | A320/M-SDE3FGHIRWY/LB1 |
Departure
| Time | 2026-05-07 00:34 |
|---|---|
| Airport | LaGuardia Airport (KLGA) |
Arrival
| Time | N/A |
|---|---|
| Airport | Ronald Reagan Washington National Airport (KDCA) |
| Time | Latitude | Longitude | Altitude | Speed | Heading |
|---|---|---|---|---|---|
| 2026-05-07 00:09 | 40.77493 | -73.86944 | 15 ft | 0 kts | 128° |
| 2026-05-07 00:23 | 40.77490 | -73.86946 | 15 ft | 4 kts | 160° |
| 2026-05-07 00:23 | 40.77487 | -73.86946 | 15 ft | 4 kts | 165° |
| 2026-05-07 00:24 | 40.77509 | -73.86962 | 14 ft | 4 kts | 136° |
| 2026-05-07 00:24 | 40.77524 | -73.86988 | 16 ft | 4 kts | 93° |
| 2026-05-07 00:24 | 40.77519 | -73.87009 | 14 ft | 1 kts | 32° |
| 2026-05-07 00:27 | 40.77522 | -73.87006 | 14 ft | 3 kts | 32° |
| 2026-05-07 00:27 | 40.77559 | -73.86977 | 14 ft | 9 kts | 30° |
| 2026-05-07 00:27 | 40.77630 | -73.86974 | 13 ft | 14 kts | 308° |
| 2026-05-07 00:27 | 40.77714 | -73.86991 | 14 ft | 9 kts | 325° |
| 2026-05-07 00:28 | 40.77725 | -73.87030 | 17 ft | 4 kts | 293° |
| 2026-05-07 00:28 | 40.77734 | -73.87050 | 17 ft | 3 kts | 301° |
| 2026-05-07 00:28 | 40.77744 | -73.87071 | 16 ft | 2 kts | 301° |
| 2026-05-07 00:28 | 40.77754 | -73.87093 | 17 ft | 4 kts | 301° |
| 2026-05-07 00:29 | 40.77774 | -73.87136 | 17 ft | 7 kts | 301° |
| 2026-05-07 00:29 | 40.77806 | -73.87201 | 16 ft | 10 kts | 303° |
| 2026-05-07 00:30 | 40.77898 | -73.87394 | 18 ft | 8 kts | 302° |
| 2026-05-07 00:30 | 40.77907 | -73.87413 | 17 ft | 0 kts | 302° |
| 2026-05-07 00:30 | 40.77907 | -73.87414 | 17 ft | 1 kts | 302° |
| 2026-05-07 00:31 | 40.77925 | -73.87451 | 17 ft | 7 kts | 302° |
| 2026-05-07 00:31 | 40.77959 | -73.87522 | 15 ft | 11 kts | 302° |
| 2026-05-07 00:31 | 40.78002 | -73.87610 | 15 ft | 10 kts | 302° |
| 2026-05-07 00:31 | 40.78038 | -73.87687 | 17 ft | 10 kts | 302° |
| 2026-05-07 00:32 | 40.78081 | -73.87777 | 16 ft | 13 kts | 302° |
| 2026-05-07 00:32 | 40.78129 | -73.87849 | 16 ft | 9 kts | 327° |
| 2026-05-07 00:32 | 40.78144 | -73.87859 | 17 ft | 1 kts | 336° |
| 2026-05-07 00:32 | 40.78168 | -73.87865 | 18 ft | 8 kts | 356° |
| 2026-05-07 00:33 | 40.78213 | -73.87819 | 18 ft | 11 kts | 83° |
| 2026-05-07 00:33 | 40.78207 | -73.87794 | 17 ft | 0 kts | 122° |
| 2026-05-07 00:33 | 40.78206 | -73.87794 | 17 ft | 1 kts | 122° |
| 2026-05-07 00:33 | 40.78062 | -73.87496 | 14 ft | 83 kts | 122° |
| 2026-05-07 00:34 | 40.77615 | -73.86564 | 15 ft | 153 kts | 122° |
| 2026-05-07 00:34 | 40.77042 | -73.85400 | 747 ft | 140 kts | 126° |
| 2026-05-07 00:34 | 40.76352 | -73.84531 | 1111 ft | 143 kts | 151° |
| 2026-05-07 00:34 | 40.75356 | -73.84150 | 1304 ft | 153 kts | 185° |
| 2026-05-07 00:35 | 40.74425 | -73.84597 | 1804 ft | 142 kts | 225° |
| 2026-05-07 00:35 | 40.73903 | -73.85702 | 2005 ft | 154 kts | 248° |
| 2026-05-07 00:35 | 40.73704 | -73.87168 | 1987 ft | 162 kts | 280° |
| 2026-05-07 00:35 | 40.74068 | -73.88509 | 2199 ft | 153 kts | 311° |
| 2026-05-07 00:36 | 40.74748 | -73.89589 | 2261 ft | 160 kts | 303° |
| 2026-05-07 00:36 | 40.75219 | -73.91020 | 2348 ft | 187 kts | 270° |
| 2026-05-07 00:36 | 40.74738 | -73.92711 | 2371 ft | 214 kts | 226° |
| 2026-05-07 00:36 | 40.73317 | -73.93645 | 2357 ft | 253 kts | 188° |
| 2026-05-07 00:37 | 40.71414 | -73.93962 | 2260 ft | 296 kts | 198° |
| 2026-05-07 00:37 | 40.69733 | -73.95374 | 2348 ft | 279 kts | 232° |
| 2026-05-07 00:37 | 40.69072 | -73.97634 | 3040 ft | 264 kts | 270° |
| 2026-05-07 00:37 | 40.69538 | -73.99906 | 3995 ft | 264 kts | 303° |
| 2026-05-07 00:38 | 40.70522 | -74.01940 | 4942 ft | 263 kts | 294° |
| 2026-05-07 00:38 | 40.71034 | -74.04273 | 5682 ft | 272 kts | 275° |
| 2026-05-07 00:38 | 40.70802 | -74.06827 | 5970 ft | 290 kts | 252° |
| 2026-05-07 00:38 | 40.70051 | -74.09227 | 5973 ft | 277 kts | 245° |
| 2026-05-07 00:39 | 40.69132 | -74.11554 | 5964 ft | 302 kts | 240° |
| 2026-05-07 00:39 | 40.67980 | -74.14037 | 6005 ft | 332 kts | 237° |
| 2026-05-07 00:39 | 40.66604 | -74.16625 | 6085 ft | 358 kts | 233° |
| 2026-05-07 00:39 | 40.65025 | -74.19256 | 6170 ft | 363 kts | 230° |
| 2026-05-07 00:40 | 40.63566 | -74.21796 | 6305 ft | 335 kts | 243° |
| 2026-05-07 00:40 | 40.62938 | -74.24593 | 6543 ft | 306 kts | 267° |
| 2026-05-07 00:40 | 40.63236 | -74.27222 | 6781 ft | 281 kts | 292° |
| 2026-05-07 00:40 | 40.64311 | -74.29228 | 6918 ft | 261 kts | 321° |
| 2026-05-07 00:41 | 40.65872 | -74.30212 | 7023 ft | 241 kts | 352° |
| 2026-05-07 00:41 | 40.67440 | -74.29996 | 7133 ft | 218 kts | 25° |
| 2026-05-07 00:41 | 40.68565 | -74.28792 | 6983 ft | 213 kts | 57° |
| 2026-05-07 00:41 | 40.69251 | -74.26797 | 6696 ft | 252 kts | 68° |
| 2026-05-07 00:42 | 40.69901 | -74.24666 | 6863 ft | 247 kts | 68° |
| 2026-05-07 00:42 | 40.70534 | -74.22608 | 7074 ft | 239 kts | 68° |
| 2026-05-07 00:42 | 40.71154 | -74.20592 | 7144 ft | 234 kts | 68° |
| 2026-05-07 00:42 | 40.71772 | -74.18583 | 6771 ft | 248 kts | 68° |
| 2026-05-07 00:43 | 40.72445 | -74.16397 | 6246 ft | 267 kts | 68° |
| 2026-05-07 00:43 | 40.73166 | -74.14060 | 5917 ft | 273 kts | 68° |
| 2026-05-07 00:43 | 40.73874 | -74.11767 | 5587 ft | 273 kts | 68° |
| 2026-05-07 00:43 | 40.74589 | -74.09455 | 5283 ft | 272 kts | 68° |
| 2026-05-07 00:44 | 40.75305 | -74.07139 | 5109 ft | 272 kts | 68° |
| 2026-05-07 00:44 | 40.76049 | -74.04732 | 4971 ft | 293 kts | 68° |
| 2026-05-07 00:44 | 40.76814 | -74.02258 | 4819 ft | 290 kts | 68° |
| 2026-05-07 00:44 | 40.77570 | -73.99815 | 4652 ft | 284 kts | 68° |
| 2026-05-07 00:45 | 40.78304 | -73.97446 | 4525 ft | 276 kts | 67° |
| 2026-05-07 00:45 | 40.79242 | -73.95285 | 4389 ft | 270 kts | 46° |
| 2026-05-07 00:45 | 40.80763 | -73.93913 | 4140 ft | 265 kts | 22° |
| 2026-05-07 00:45 | 40.82488 | -73.93074 | 3813 ft | 264 kts | 18° |
| 2026-05-07 00:46 | 40.84167 | -73.92325 | 3633 ft | 244 kts | 18° |
| 2026-05-07 00:46 | 40.85718 | -73.91644 | 3504 ft | 232 kts | 17° |
| 2026-05-07 00:46 | 40.87227 | -73.90986 | 3258 ft | 226 kts | 17° |
| 2026-05-07 00:46 | 40.88687 | -73.90348 | 3160 ft | 215 kts | 17° |
| 2026-05-07 00:47 | 40.90082 | -73.89728 | 3177 ft | 216 kts | 18° |
| 2026-05-07 00:47 | 40.91540 | -73.89056 | 3168 ft | 225 kts | 18° |
| 2026-05-07 00:47 | 40.93022 | -73.88381 | 3166 ft | 226 kts | 18° |
| 2026-05-07 00:47 | 40.94506 | -73.87676 | 3165 ft | 229 kts | 23° |
| 2026-05-07 00:48 | 40.95886 | -73.86608 | 3158 ft | 231 kts | 44° |
| 2026-05-07 00:48 | 40.96686 | -73.84823 | 3128 ft | 227 kts | 76° |
| 2026-05-07 00:48 | 40.96654 | -73.82731 | 2688 ft | 231 kts | 109° |
| 2026-05-07 00:48 | 40.96035 | -73.80823 | 2517 ft | 222 kts | 116° |
| 2026-05-07 00:49 | 40.95346 | -73.79004 | 2249 ft | 220 kts | 117° |
| 2026-05-07 00:49 | 40.94477 | -73.77366 | 2146 ft | 218 kts | 143° |
| 2026-05-07 00:49 | 40.93088 | -73.76663 | 2156 ft | 217 kts | 180° |
| 2026-05-07 00:49 | 40.91654 | -73.77099 | 2170 ft | 216 kts | 204° |
| 2026-05-07 00:50 | 40.90273 | -73.77972 | 2163 ft | 218 kts | 207° |
| 2026-05-07 00:50 | 40.88922 | -73.78888 | 2168 ft | 219 kts | 208° |
| 2026-05-07 00:50 | 40.87596 | -73.79820 | 2113 ft | 217 kts | 210° |
| 2026-05-07 00:50 | 40.86417 | -73.80928 | 1972 ft | 198 kts | 221° |
| 2026-05-07 00:51 | 40.85498 | -73.82133 | 1764 ft | 175 kts | 228° |
| 2026-05-07 00:51 | 40.84562 | -73.83046 | 1637 ft | 164 kts | 205° |
| 2026-05-07 00:51 | 40.83493 | -73.83557 | 1308 ft | 165 kts | 201° |
| 2026-05-07 00:51 | 40.82417 | -73.84061 | 1013 ft | 162 kts | 204° |
| 2026-05-07 00:52 | 40.81400 | -73.84693 | 807 ft | 161 kts | 211° |
| 2026-05-07 00:52 | 40.80461 | -73.85474 | 557 ft | 160 kts | 215° |
| 2026-05-07 00:52 | 40.79505 | -73.86267 | 336 ft | 159 kts | 215° |
| 2026-05-07 00:52 | 40.78579 | -73.87040 | 68 ft | 154 kts | 212° |
| 2026-05-07 00:53 | 40.77868 | -73.87621 | 17 ft | 56 kts | 214° |
| 2026-05-07 00:53 | 40.77787 | -73.87691 | 19 ft | 2 kts | 211° |
| 2026-05-07 00:53 | 40.77787 | -73.87692 | 19 ft | 0 kts | 211° |
| 2026-05-07 00:55 | 40.77785 | -73.87693 | 19 ft | 3 kts | 211° |
| 2026-05-07 00:55 | 40.77756 | -73.87717 | 20 ft | 11 kts | 213° |
| 2026-05-07 00:55 | 40.77672 | -73.87757 | 22 ft | 13 kts | 151° |
| 2026-05-07 00:55 | 40.77615 | -73.87650 | 23 ft | 15 kts | 110° |
| 2026-05-07 00:56 | 40.77684 | -73.87544 | 24 ft | 20 kts | 31° |
| 2026-05-07 00:56 | 40.77758 | -73.87425 | 19 ft | 18 kts | 69° |
| 2026-05-07 00:56 | 40.77767 | -73.87266 | 18 ft | 14 kts | 105° |
| 2026-05-07 00:56 | 40.77707 | -73.87131 | 17 ft | 18 kts | 125° |
| 2026-05-07 00:57 | 40.77617 | -73.87003 | 13 ft | 22 kts | 152° |
| 2026-05-07 00:57 | 40.77509 | -73.86960 | 14 ft | 13 kts | 138° |
| 2026-05-07 00:57 | 40.77505 | -73.86955 | 15 ft | 0 kts | 138° |
| 2026-05-07 00:58 | 40.77493 | -73.86944 | 17 ft | 1 kts | 128° |